sensor_id;sensor_type;location;lat;lon;timestamp;temperature;humidity
35111;DHT22;21290;50.158;8.658;2023-08-24T00:01:13;18.90;99.90
35111;DHT22;21290;50.158;8.658;2023-08-24T00:03:40;18.90;99.90
35111;DHT22;21290;50.158;8.658;2023-08-24T00:06:07;18.80;99.90
35111;DHT22;21290;50.158;8.658;2023-08-24T00:08:34;18.80;99.90
35111;DHT22;21290;50.158;8.658;2023-08-24T00:11:00;18.70;99.90
35111;DHT22;21290;50.158;8.658;2023-08-24T00:13:27;18.80;99.90
35111;DHT22;21290;50.158;8.658;2023-08-24T00:15:54;18.70;99.90
35111;DHT22;21290;50.158;8.658;2023-08-24T00:18:21;18.70;99.90
35111;DHT22;21290;50.158;8.658;2023-08-24T00:21:08;18.70;99.90
35111;DHT22;21290;50.158;8.658;2023-08-24T00:23:52;18.70;99.90
35111;DHT22;21290;50.158;8.658;2023-08-24T00:26:19;18.70;99.90
35111;DHT22;21290;50.158;8.658;2023-08-24T00:28:46;18.60;99.90
35111;DHT22;21290;50.158;8.658;2023-08-24T00:31:15;18.60;99.90
35111;DHT22;21290;50.158;8.658;2023-08-24T00:33:42;18.60;99.90
35111;DHT22;21290;50.158;8.658;2023-08-24T00:36:26;18.60;99.90
35111;DHT22;21290;50.158;8.658;2023-08-24T00:38:53;18.50;99.90
35111;DHT22;21290;50.158;8.658;2023-08-24T00:41:20;18.50;99.90
35111;DHT22;21290;50.158;8.658;2023-08-24T00:43:48;18.50;99.90
35111;DHT22;21290;50.158;8.658;2023-08-24T00:46:16;18.40;99.90
35111;DHT22;21290;50.158;8.658;2023-08-24T00:48:44;18.40;99.90
35111;DHT22;21290;50.158;8.658;2023-08-24T00:51:10;18.40;99.90
35111;DHT22;21290;50.158;8.658;2023-08-24T00:53:37;18.40;99.90
35111;DHT22;21290;50.158;8.658;2023-08-24T00:56:04;18.40;99.90
35111;DHT22;21290;50.158;8.658;2023-08-24T00:58:32;18.40;99.90
35111;DHT22;21290;50.158;8.658;2023-08-24T01:00:59;18.30;99.90
35111;DHT22;21290;50.158;8.658;2023-08-24T01:03:25;18.30;99.90
35111;DHT22;21290;50.158;8.658;2023-08-24T01:05:52;18.30;99.90
35111;DHT22;21290;50.158;8.658;2023-08-24T01:08:20;18.30;99.90
35111;DHT22;21290;50.158;8.658;2023-08-24T01:10:57;18.30;99.90
35111;DHT22;21290;50.158;8.658;2023-08-24T01:13:32;18.20;99.90
35111;DHT22;21290;50.158;8.658;2023-08-24T01:16:08;18.20;99.90
35111;DHT22;21290;50.158;8.658;2023-08-24T01:18:39;18.20;99.90
35111;DHT22;21290;50.158;8.658;2023-08-24T01:21:07;18.20;99.90
35111;DHT22;21290;50.158;8.658;2023-08-24T01:24:10;18.20;99.90
35111;DHT22;21290;50.158;8.658;2023-08-24T01:26:35;18.20;99.90
35111;DHT22;21290;50.158;8.658;2023-08-24T01:29:04;18.20;99.90
35111;DHT22;21290;50.158;8.658;2023-08-24T01:31:31;18.10;99.90
35111;DHT22;21290;50.158;8.658;2023-08-24T01:33:57;18.10;99.90
35111;DHT22;21290;50.158;8.658;2023-08-24T01:36:24;18.10;99.90
35111;DHT22;21290;50.158;8.658;2023-08-24T01:41:45;18.10;99.90
35111;DHT22;21290;50.158;8.658;2023-08-24T01:44:18;18.00;99.90
35111;DHT22;21290;50.158;8.658;2023-08-24T01:46:48;18.00;99.90
35111;DHT22;21290;50.158;8.658;2023-08-24T01:49:17;18.00;99.90
35111;DHT22;21290;50.158;8.658;2023-08-24T01:51:44;18.00;99.90
35111;DHT22;21290;50.158;8.658;2023-08-24T01:54:12;18.00;99.90
35111;DHT22;21290;50.158;8.658;2023-08-24T01:56:39;18.00;99.90
35111;DHT22;21290;50.158;8.658;2023-08-24T01:59:06;17.90;99.90
35111;DHT22;21290;50.158;8.658;2023-08-24T02:01:32;17.90;99.90
35111;DHT22;21290;50.158;8.658;2023-08-24T02:03:59;17.90;99.90
35111;DHT22;21290;50.158;8.658;2023-08-24T02:06:26;17.90;99.90
35111;DHT22;21290;50.158;8.658;2023-08-24T02:08:53;17.90;99.90
35111;DHT22;21290;50.158;8.658;2023-08-24T02:11:20;17.90;99.90
35111;DHT22;21290;50.158;8.658;2023-08-24T02:13:47;17.90;99.90
35111;DHT22;21290;50.158;8.658;2023-08-24T02:16:13;18.00;99.90
35111;DHT22;21290;50.158;8.658;2023-08-24T02:18:40;17.90;99.90
35111;DHT22;21290;50.158;8.658;2023-08-24T02:21:08;17.90;99.90
35111;DHT22;21290;50.158;8.658;2023-08-24T02:23:35;17.90;99.90
35111;DHT22;21290;50.158;8.658;2023-08-24T02:26:02;17.90;99.90
35111;DHT22;21290;50.158;8.658;2023-08-24T02:28:29;17.90;99.90
35111;DHT22;21290;50.158;8.658;2023-08-24T02:31:00;18.00;99.90
35111;DHT22;21290;50.158;8.658;2023-08-24T02:33:28;18.00;99.90
35111;DHT22;21290;50.158;8.658;2023-08-24T02:35:54;18.00;99.90
35111;DHT22;21290;50.158;8.658;2023-08-24T02:38:21;17.90;99.90
35111;DHT22;21290;50.158;8.658;2023-08-24T02:40:48;18.00;99.90
35111;DHT22;21290;50.158;8.658;2023-08-24T02:43:14;18.00;99.90
35111;DHT22;21290;50.158;8.658;2023-08-24T02:45:41;18.00;99.90
35111;DHT22;21290;50.158;8.658;2023-08-24T02:48:07;18.00;99.90
35111;DHT22;21290;50.158;8.658;2023-08-24T02:50:34;18.00;99.90
35111;DHT22;21290;50.158;8.658;2023-08-24T02:53:01;18.10;99.90
35111;DHT22;21290;50.158;8.658;2023-08-24T02:55:28;18.10;99.90
35111;DHT22;21290;50.158;8.658;2023-08-24T02:57:57;18.10;99.90
35111;DHT22;21290;50.158;8.658;2023-08-24T03:00:24;18.10;99.90
35111;DHT22;21290;50.158;8.658;2023-08-24T03:02:51;18.10;99.90
35111;DHT22;21290;50.158;8.658;2023-08-24T03:05:17;18.10;99.90
35111;DHT22;21290;50.158;8.658;2023-08-24T03:07:44;18.10;99.90
35111;DHT22;21290;50.158;8.658;2023-08-24T03:10:11;18.20;99.90
35111;DHT22;21290;50.158;8.658;2023-08-24T03:12:37;18.10;99.90
35111;DHT22;21290;50.158;8.658;2023-08-24T03:15:04;18.10;99.90
35111;DHT22;21290;50.158;8.658;2023-08-24T03:17:32;18.10;99.90
35111;DHT22;21290;50.158;8.658;2023-08-24T03:19:59;18.10;99.90
35111;DHT22;21290;50.158;8.658;2023-08-24T03:22:25;18.00;99.90
35111;DHT22;21290;50.158;8.658;2023-08-24T03:24:52;18.00;99.90
35111;DHT22;21290;50.158;8.658;2023-08-24T03:27:18;18.00;99.90
35111;DHT22;21290;50.158;8.658;2023-08-24T03:29:45;17.90;99.90
35111;DHT22;21290;50.158;8.658;2023-08-24T03:32:12;17.90;99.90
35111;DHT22;21290;50.158;8.658;2023-08-24T03:34:38;17.90;99.90
35111;DHT22;21290;50.158;8.658;2023-08-24T03:37:06;17.90;99.90
35111;DHT22;21290;50.158;8.658;2023-08-24T03:39:33;17.80;99.90
35111;DHT22;21290;50.158;8.658;2023-08-24T03:41:59;17.80;99.90
35111;DHT22;21290;50.158;8.658;2023-08-24T03:44:26;17.80;99.90
35111;DHT22;21290;50.158;8.658;2023-08-24T03:46:53;17.70;99.90
35111;DHT22;21290;50.158;8.658;2023-08-24T03:49:19;17.70;99.90
35111;DHT22;21290;50.158;8.658;2023-08-24T03:51:46;17.70;99.90
35111;DHT22;21290;50.158;8.658;2023-08-24T03:54:13;17.70;99.90
35111;DHT22;21290;50.158;8.658;2023-08-24T03:56:39;17.70;99.90
35111;DHT22;21290;50.158;8.658;2023-08-24T03:59:06;17.70;99.90
35111;DHT22;21290;50.158;8.658;2023-08-24T04:01:32;17.80;99.90
35111;DHT22;21290;50.158;8.658;2023-08-24T04:03:59;17.80;99.90
35111;DHT22;21290;50.158;8.658;2023-08-24T04:06:27;17.80;99.90
35111;DHT22;21290;50.158;8.658;2023-08-24T04:08:54;17.80;99.90
35111;DHT22;21290;50.158;8.658;2023-08-24T04:11:20;17.80;99.90
35111;DHT22;21290;50.158;8.658;2023-08-24T04:13:47;17.80;99.90
35111;DHT22;21290;50.158;8.658;2023-08-24T04:16:14;17.70;99.90
35111;DHT22;21290;50.158;8.658;2023-08-24T04:18:40;17.70;99.90
35111;DHT22;21290;50.158;8.658;2023-08-24T04:21:07;17.70;99.90
35111;DHT22;21290;50.158;8.658;2023-08-24T04:23:34;17.60;99.90
35111;DHT22;21290;50.158;8.658;2023-08-24T04:26:00;17.60;99.90
35111;DHT22;21290;50.158;8.658;2023-08-24T04:28:27;17.60;99.90
35111;DHT22;21290;50.158;8.658;2023-08-24T04:30:55;17.60;99.90
35111;DHT22;21290;50.158;8.658;2023-08-24T04:33:24;17.60;99.90
35111;DHT22;21290;50.158;8.658;2023-08-24T04:35:51;17.60;99.90
35111;DHT22;21290;50.158;8.658;2023-08-24T04:38:18;17.60;99.90
35111;DHT22;21290;50.158;8.658;2023-08-24T04:40:51;17.60;99.90
35111;DHT22;21290;50.158;8.658;2023-08-24T04:43:19;17.60;99.90
35111;DHT22;21290;50.158;8.658;2023-08-24T04:45:47;17.70;99.90
35111;DHT22;21290;50.158;8.658;2023-08-24T04:48:14;17.60;99.90
35111;DHT22;21290;50.158;8.658;2023-08-24T04:50:44;17.70;99.90
35111;DHT22;21290;50.158;8.658;2023-08-24T04:53:14;17.70;99.90
35111;DHT22;21290;50.158;8.658;2023-08-24T04:55:41;17.70;99.90
35111;DHT22;21290;50.158;8.658;2023-08-24T04:58:08;17.70;99.90
35111;DHT22;21290;50.158;8.658;2023-08-24T05:00:35;17.70;99.90
35111;DHT22;21290;50.158;8.658;2023-08-24T05:03:03;17.70;99.90
35111;DHT22;21290;50.158;8.658;2023-08-24T05:05:31;17.70;99.90
35111;DHT22;21290;50.158;8.658;2023-08-24T05:07:59;17.80;99.90
35111;DHT22;21290;50.158;8.658;2023-08-24T05:10:30;17.80;99.90
35111;DHT22;21290;50.158;8.658;2023-08-24T05:12:57;17.80;99.90
35111;DHT22;21290;50.158;8.658;2023-08-24T05:15:23;17.90;99.90
35111;DHT22;21290;50.158;8.658;2023-08-24T05:17:50;17.80;99.90
35111;DHT22;21290;50.158;8.658;2023-08-24T05:20:24;17.90;99.90
35111;DHT22;21290;50.158;8.658;2023-08-24T05:22:51;17.90;99.90
35111;DHT22;21290;50.158;8.658;2023-08-24T05:25:18;17.90;99.90
35111;DHT22;21290;50.158;8.658;2023-08-24T05:27:44;18.00;99.90
35111;DHT22;21290;50.158;8.658;2023-08-24T05:30:11;18.10;99.90
35111;DHT22;21290;50.158;8.658;2023-08-24T05:32:38;18.10;99.90
35111;DHT22;21290;50.158;8.658;2023-08-24T05:35:06;18.20;99.90
35111;DHT22;21290;50.158;8.658;2023-08-24T05:37:33;18.30;99.90
35111;DHT22;21290;50.158;8.658;2023-08-24T05:40:00;18.30;99.90
35111;DHT22;21290;50.158;8.658;2023-08-24T05:42:30;18.40;99.90
35111;DHT22;21290;50.158;8.658;2023-08-24T05:44:57;18.50;99.90
35111;DHT22;21290;50.158;8.658;2023-08-24T05:47:23;18.60;99.90
35111;DHT22;21290;50.158;8.658;2023-08-24T05:49:50;18.70;99.90
35111;DHT22;21290;50.158;8.658;2023-08-24T05:52:17;18.80;99.90
35111;DHT22;21290;50.158;8.658;2023-08-24T05:54:43;18.80;99.90
35111;DHT22;21290;50.158;8.658;2023-08-24T05:57:10;19.00;99.90
35111;DHT22;21290;50.158;8.658;2023-08-24T05:59:37;19.10;99.90
35111;DHT22;21290;50.158;8.658;2023-08-24T06:02:03;19.30;99.90
35111;DHT22;21290;50.158;8.658;2023-08-24T06:04:31;19.40;99.90
35111;DHT22;21290;50.158;8.658;2023-08-24T06:06:57;19.60;99.90
35111;DHT22;21290;50.158;8.658;2023-08-24T06:09:24;19.80;99.90
35111;DHT22;21290;50.158;8.658;2023-08-24T06:11:50;19.90;99.90
35111;DHT22;21290;50.158;8.658;2023-08-24T06:14:17;20.00;99.90
35111;DHT22;21290;50.158;8.658;2023-08-24T06:16:44;20.10;99.90
35111;DHT22;21290;50.158;8.658;2023-08-24T06:19:10;20.20;99.90
35111;DHT22;21290;50.158;8.658;2023-08-24T06:21:37;20.40;99.90
35111;DHT22;21290;50.158;8.658;2023-08-24T06:24:04;20.50;99.90
35111;DHT22;21290;50.158;8.658;2023-08-24T06:26:30;20.60;99.90
35111;DHT22;21290;50.158;8.658;2023-08-24T06:28:57;20.70;99.90
35111;DHT22;21290;50.158;8.658;2023-08-24T06:31:24;20.70;99.90
35111;DHT22;21290;50.158;8.658;2023-08-24T06:33:50;20.70;99.90
35111;DHT22;21290;50.158;8.658;2023-08-24T06:36:17;20.70;99.90
35111;DHT22;21290;50.158;8.658;2023-08-24T06:38:44;20.80;99.90
35111;DHT22;21290;50.158;8.658;2023-08-24T06:41:10;20.70;99.90
35111;DHT22;21290;50.158;8.658;2023-08-24T06:43:39;20.70;99.90
35111;DHT22;21290;50.158;8.658;2023-08-24T06:46:06;20.60;99.90
35111;DHT22;21290;50.158;8.658;2023-08-24T06:48:36;20.50;99.90
35111;DHT22;21290;50.158;8.658;2023-08-24T06:51:03;20.50;99.90
35111;DHT22;21290;50.158;8.658;2023-08-24T06:53:30;20.40;99.90
35111;DHT22;21290;50.158;8.658;2023-08-24T06:55:57;20.30;99.90
35111;DHT22;21290;50.158;8.658;2023-08-24T06:58:24;20.20;99.90
35111;DHT22;21290;50.158;8.658;2023-08-24T07:00:51;20.00;99.90
35111;DHT22;21290;50.158;8.658;2023-08-24T07:03:18;20.00;99.90
35111;DHT22;21290;50.158;8.658;2023-08-24T07:05:46;19.90;99.90
35111;DHT22;21290;50.158;8.658;2023-08-24T07:08:13;20.00;99.90
35111;DHT22;21290;50.158;8.658;2023-08-24T07:10:40;20.10;99.90
35111;DHT22;21290;50.158;8.658;2023-08-24T07:13:07;20.20;99.90
35111;DHT22;21290;50.158;8.658;2023-08-24T07:15:34;20.20;99.90
35111;DHT22;21290;50.158;8.658;2023-08-24T07:18:02;20.30;99.90
35111;DHT22;21290;50.158;8.658;2023-08-24T07:20:29;20.40;99.90
35111;DHT22;21290;50.158;8.658;2023-08-24T07:22:55;20.40;99.90
35111;DHT22;21290;50.158;8.658;2023-08-24T07:25:24;20.40;99.90
35111;DHT22;21290;50.158;8.658;2023-08-24T07:27:51;20.50;99.90
35111;DHT22;21290;50.158;8.658;2023-08-24T07:30:18;20.50;99.90
35111;DHT22;21290;50.158;8.658;2023-08-24T07:32:59;20.60;99.90
35111;DHT22;21290;50.158;8.658;2023-08-24T07:35:26;20.60;99.90
35111;DHT22;21290;50.158;8.658;2023-08-24T07:37:53;20.60;99.90
35111;DHT22;21290;50.158;8.658;2023-08-24T07:40:20;20.60;99.90
35111;DHT22;21290;50.158;8.658;2023-08-24T07:42:48;20.60;99.90
35111;DHT22;21290;50.158;8.658;2023-08-24T07:45:17;20.60;99.90
35111;DHT22;21290;50.158;8.658;2023-08-24T07:47:44;20.50;99.90
35111;DHT22;21290;50.158;8.658;2023-08-24T07:50:11;20.50;99.90
35111;DHT22;21290;50.158;8.658;2023-08-24T07:52:38;20.60;99.90
35111;DHT22;21290;50.158;8.658;2023-08-24T07:55:07;20.60;99.90
35111;DHT22;21290;50.158;8.658;2023-08-24T07:57:34;20.60;99.90
35111;DHT22;21290;50.158;8.658;2023-08-24T08:00:01;20.80;99.90
35111;DHT22;21290;50.158;8.658;2023-08-24T08:02:32;20.80;99.90
35111;DHT22;21290;50.158;8.658;2023-08-24T08:04:59;20.80;99.90
35111;DHT22;21290;50.158;8.658;2023-08-24T08:07:26;20.90;99.90
35111;DHT22;21290;50.158;8.658;2023-08-24T08:09:53;21.00;99.90
35111;DHT22;21290;50.158;8.658;2023-08-24T08:12:19;21.20;99.90
35111;DHT22;21290;50.158;8.658;2023-08-24T08:14:46;21.30;99.90
35111;DHT22;21290;50.158;8.658;2023-08-24T08:17:13;21.40;99.90
35111;DHT22;21290;50.158;8.658;2023-08-24T08:19:40;21.50;99.90
35111;DHT22;21290;50.158;8.658;2023-08-24T08:22:07;21.60;99.90
35111;DHT22;21290;50.158;8.658;2023-08-24T08:24:36;21.60;99.90
35111;DHT22;21290;50.158;8.658;2023-08-24T08:27:03;21.60;99.90
35111;DHT22;21290;50.158;8.658;2023-08-24T08:29:29;21.70;99.90
35111;DHT22;21290;50.158;8.658;2023-08-24T08:31:56;21.80;99.90
35111;DHT22;21290;50.158;8.658;2023-08-24T08:34:23;21.80;99.90
35111;DHT22;21290;50.158;8.658;2023-08-24T08:36:50;21.90;99.90
35111;DHT22;21290;50.158;8.658;2023-08-24T08:39:16;22.20;99.90
35111;DHT22;21290;50.158;8.658;2023-08-24T08:41:45;23.00;99.90
35111;DHT22;21290;50.158;8.658;2023-08-24T08:44:13;24.70;99.90
35111;DHT22;21290;50.158;8.658;2023-08-24T08:46:43;26.70;99.90
35111;DHT22;21290;50.158;8.658;2023-08-24T08:49:12;28.40;99.90
35111;DHT22;21290;50.158;8.658;2023-08-24T08:51:42;29.80;99.90
35111;DHT22;21290;50.158;8.658;2023-08-24T08:54:09;31.50;98.70
35111;DHT22;21290;50.158;8.658;2023-08-24T08:56:35;32.20;96.90
35111;DHT22;21290;50.158;8.658;2023-08-24T08:59:07;32.20;96.40
35111;DHT22;21290;50.158;8.658;2023-08-24T09:01:34;33.30;94.70
35111;DHT22;21290;50.158;8.658;2023-08-24T09:04:01;34.20;92.90
35111;DHT22;21290;50.158;8.658;2023-08-24T09:06:28;35.40;90.90
35111;DHT22;21290;50.158;8.658;2023-08-24T09:08:56;36.30;87.50
35111;DHT22;21290;50.158;8.658;2023-08-24T09:11:23;37.20;83.80
35111;DHT22;21290;50.158;8.658;2023-08-24T09:13:50;37.70;79.60
35111;DHT22;21290;50.158;8.658;2023-08-24T09:16:17;38.00;79.40
35111;DHT22;21290;50.158;8.658;2023-08-24T09:18:47;38.50;76.70
35111;DHT22;21290;50.158;8.658;2023-08-24T09:21:15;38.90;74.40
35111;DHT22;21290;50.158;8.658;2023-08-24T09:23:54;39.10;73.50
35111;DHT22;21290;50.158;8.658;2023-08-24T09:26:32;39.40;72.80
35111;DHT22;21290;50.158;8.658;2023-08-24T09:29:10;40.20;69.50
35111;DHT22;21290;50.158;8.658;2023-08-24T09:31:38;40.40;69.50
35111;DHT22;21290;50.158;8.658;2023-08-24T09:34:06;40.30;68.20
35111;DHT22;21290;50.158;8.658;2023-08-24T09:36:34;39.90;67.30
35111;DHT22;21290;50.158;8.658;2023-08-24T09:39:03;39.80;68.70
35111;DHT22;21290;50.158;8.658;2023-08-24T09:41:44;39.70;67.40
35111;DHT22;21290;50.158;8.658;2023-08-24T09:44:11;40.20;66.30
35111;DHT22;21290;50.158;8.658;2023-08-24T09:46:39;40.50;65.80
35111;DHT22;21290;50.158;8.658;2023-08-24T09:49:08;41.30;65.00
35111;DHT22;21290;50.158;8.658;2023-08-24T09:51:36;41.20;64.30
35111;DHT22;21290;50.158;8.658;2023-08-24T09:54:10;41.10;63.00
35111;DHT22;21290;50.158;8.658;2023-08-24T09:56:41;41.00;63.90
35111;DHT22;21290;50.158;8.658;2023-08-24T09:59:16;41.40;63.90
35111;DHT22;21290;50.158;8.658;2023-08-24T10:01:49;41.40;63.70
35111;DHT22;21290;50.158;8.658;2023-08-24T10:04:24;42.40;62.50
35111;DHT22;21290;50.158;8.658;2023-08-24T10:07:06;42.20;61.20
35111;DHT22;21290;50.158;8.658;2023-08-24T10:09:47;41.80;61.70
35111;DHT22;21290;50.158;8.658;2023-08-24T10:12:20;41.50;61.20
35111;DHT22;21290;50.158;8.658;2023-08-24T10:15:02;40.10;62.20
35111;DHT22;21290;50.158;8.658;2023-08-24T10:17:34;39.60;63.40
35111;DHT22;21290;50.158;8.658;2023-08-24T10:20:03;39.50;64.80
35111;DHT22;21290;50.158;8.658;2023-08-24T10:22:34;39.40;63.80
35111;DHT22;21290;50.158;8.658;2023-08-24T10:25:02;40.10;63.80
35111;DHT22;21290;50.158;8.658;2023-08-24T10:27:29;40.60;62.40
35111;DHT22;21290;50.158;8.658;2023-08-24T10:29:57;40.70;61.80
35111;DHT22;21290;50.158;8.658;2023-08-24T10:32:26;40.40;59.80
35111;DHT22;21290;50.158;8.658;2023-08-24T10:34:53;40.20;60.40
35111;DHT22;21290;50.158;8.658;2023-08-24T10:37:27;39.90;60.80
35111;DHT22;21290;50.158;8.658;2023-08-24T10:39:54;39.70;60.00
35111;DHT22;21290;50.158;8.658;2023-08-24T10:42:21;38.90;62.50
35111;DHT22;21290;50.158;8.658;2023-08-24T10:44:49;38.50;60.30
35111;DHT22;21290;50.158;8.658;2023-08-24T10:47:22;38.00;62.10
35111;DHT22;21290;50.158;8.658;2023-08-24T10:52:36;36.90;63.30
35111;DHT22;21290;50.158;8.658;2023-08-24T10:55:05;36.50;64.60
35111;DHT22;21290;50.158;8.658;2023-08-24T10:57:56;36.10;65.90
35111;DHT22;21290;50.158;8.658;2023-08-24T11:00:27;36.00;66.80
35111;DHT22;21290;50.158;8.658;2023-08-24T11:02:55;35.70;63.60
35111;DHT22;21290;50.158;8.658;2023-08-24T11:05:28;35.90;64.40
35111;DHT22;21290;50.158;8.658;2023-08-24T11:07:59;35.80;64.50
35111;DHT22;21290;50.158;8.658;2023-08-24T11:13:10;36.20;65.10
35111;DHT22;21290;50.158;8.658;2023-08-24T11:15:41;36.20;65.40
35111;DHT22;21290;50.158;8.658;2023-08-24T11:18:15;35.70;65.90
35111;DHT22;21290;50.158;8.658;2023-08-24T11:20:47;35.50;65.80
35111;DHT22;21290;50.158;8.658;2023-08-24T11:23:15;35.20;67.10
35111;DHT22;21290;50.158;8.658;2023-08-24T11:25:42;35.00;66.80
35111;DHT22;21290;50.158;8.658;2023-08-24T11:28:09;34.90;66.20
35111;DHT22;21290;50.158;8.658;2023-08-24T11:30:36;34.60;67.30
35111;DHT22;21290;50.158;8.658;2023-08-24T11:33:03;34.80;68.10
35111;DHT22;21290;50.158;8.658;2023-08-24T11:35:35;35.00;69.00
35111;DHT22;21290;50.158;8.658;2023-08-24T11:38:02;35.90;65.90
35111;DHT22;21290;50.158;8.658;2023-08-24T11:40:29;36.60;66.00
35111;DHT22;21290;50.158;8.658;2023-08-24T11:42:56;37.30;66.20
35111;DHT22;21290;50.158;8.658;2023-08-24T11:45:23;37.90;64.20
35111;DHT22;21290;50.158;8.658;2023-08-24T11:47:50;38.10;65.00
35111;DHT22;21290;50.158;8.658;2023-08-24T11:50:17;38.20;65.50
35111;DHT22;21290;50.158;8.658;2023-08-24T11:52:44;38.30;65.20
35111;DHT22;21290;50.158;8.658;2023-08-24T11:55:11;37.90;64.40
35111;DHT22;21290;50.158;8.658;2023-08-24T11:57:38;37.40;63.20
35111;DHT22;21290;50.158;8.658;2023-08-24T12:00:06;36.70;65.30
35111;DHT22;21290;50.158;8.658;2023-08-24T12:02:33;36.10;65.30
35111;DHT22;21290;50.158;8.658;2023-08-24T12:05:01;35.70;67.30
35111;DHT22;21290;50.158;8.658;2023-08-24T12:07:32;35.60;69.10
35111;DHT22;21290;50.158;8.658;2023-08-24T12:10:02;35.60;67.60
35111;DHT22;21290;50.158;8.658;2023-08-24T12:12:29;35.40;68.90
35111;DHT22;21290;50.158;8.658;2023-08-24T12:14:56;35.40;69.30
35111;DHT22;21290;50.158;8.658;2023-08-24T12:17:25;35.10;68.90
35111;DHT22;21290;50.158;8.658;2023-08-24T12:19:59;34.80;69.70
35111;DHT22;21290;50.158;8.658;2023-08-24T12:22:27;34.40;70.50
35111;DHT22;21290;50.158;8.658;2023-08-24T12:24:54;34.10;68.80
35111;DHT22;21290;50.158;8.658;2023-08-24T12:27:26;33.60;69.30
35111;DHT22;21290;50.158;8.658;2023-08-24T12:29:53;33.50;71.40
35111;DHT22;21290;50.158;8.658;2023-08-24T12:32:20;33.30;71.40
35111;DHT22;21290;50.158;8.658;2023-08-24T12:34:49;33.20;73.20
35111;DHT22;21290;50.158;8.658;2023-08-24T12:37:21;33.00;69.80
35111;DHT22;21290;50.158;8.658;2023-08-24T12:39:47;33.00;68.90
35111;DHT22;21290;50.158;8.658;2023-08-24T12:42:15;32.90;68.70
35111;DHT22;21290;50.158;8.658;2023-08-24T12:44:41;32.80;69.20
35111;DHT22;21290;50.158;8.658;2023-08-24T12:47:09;32.60;68.70
35111;DHT22;21290;50.158;8.658;2023-08-24T12:49:35;32.50;70.70
35111;DHT22;21290;50.158;8.658;2023-08-24T12:52:02;32.30;69.20
35111;DHT22;21290;50.158;8.658;2023-08-24T12:54:29;32.20;69.20
35111;DHT22;21290;50.158;8.658;2023-08-24T12:56:55;32.10;69.30
35111;DHT22;21290;50.158;8.658;2023-08-24T12:59:22;32.10;70.10
35111;DHT22;21290;50.158;8.658;2023-08-24T13:01:49;32.00;69.70
35111;DHT22;21290;50.158;8.658;2023-08-24T13:04:16;32.10;71.40
35111;DHT22;21290;50.158;8.658;2023-08-24T13:06:42;32.10;72.80
35111;DHT22;21290;50.158;8.658;2023-08-24T13:09:09;32.00;69.50
35111;DHT22;21290;50.158;8.658;2023-08-24T13:11:36;32.00;71.30
35111;DHT22;21290;50.158;8.658;2023-08-24T13:14:02;32.00;70.30
35111;DHT22;21290;50.158;8.658;2023-08-24T13:16:29;32.00;71.60
35111;DHT22;21290;50.158;8.658;2023-08-24T13:18:56;32.00;70.90
35111;DHT22;21290;50.158;8.658;2023-08-24T13:21:24;32.00;71.00
35111;DHT22;21290;50.158;8.658;2023-08-24T13:23:51;32.00;72.40
35111;DHT22;21290;50.158;8.658;2023-08-24T13:26:19;31.90;72.70
35111;DHT22;21290;50.158;8.658;2023-08-24T13:28:47;31.90;72.40
35111;DHT22;21290;50.158;8.658;2023-08-24T13:31:14;31.80;74.30
35111;DHT22;21290;50.158;8.658;2023-08-24T13:33:41;31.70;75.80
35111;DHT22;21290;50.158;8.658;2023-08-24T13:36:07;31.50;75.50
35111;DHT22;21290;50.158;8.658;2023-08-24T13:38:34;31.30;76.00
35111;DHT22;21290;50.158;8.658;2023-08-24T13:41:01;31.20;77.50
35111;DHT22;21290;50.158;8.658;2023-08-24T13:43:28;31.00;77.90
35111;DHT22;21290;50.158;8.658;2023-08-24T13:45:55;30.90;79.60
35111;DHT22;21290;50.158;8.658;2023-08-24T13:48:21;30.90;79.10
35111;DHT22;21290;50.158;8.658;2023-08-24T13:50:51;30.80;78.50
35111;DHT22;21290;50.158;8.658;2023-08-24T13:53:20;30.90;78.60
35111;DHT22;21290;50.158;8.658;2023-08-24T13:55:47;30.80;78.00
35111;DHT22;21290;50.158;8.658;2023-08-24T13:58:14;30.70;78.70
35111;DHT22;21290;50.158;8.658;2023-08-24T14:00:40;30.80;77.90
35111;DHT22;21290;50.158;8.658;2023-08-24T14:03:07;30.90;77.70
35111;DHT22;21290;50.158;8.658;2023-08-24T14:05:39;30.80;77.50
35111;DHT22;21290;50.158;8.658;2023-08-24T14:08:06;30.90;77.50
35111;DHT22;21290;50.158;8.658;2023-08-24T14:10:34;31.00;78.10
35111;DHT22;21290;50.158;8.658;2023-08-24T14:13:01;31.00;77.80
35111;DHT22;21290;50.158;8.658;2023-08-24T14:15:27;31.00;77.40
35111;DHT22;21290;50.158;8.658;2023-08-24T14:17:54;31.00;78.10
35111;DHT22;21290;50.158;8.658;2023-08-24T14:20:21;31.00;78.80
35111;DHT22;21290;50.158;8.658;2023-08-24T14:22:47;30.80;78.70
35111;DHT22;21290;50.158;8.658;2023-08-24T14:25:15;30.60;79.20
35111;DHT22;21290;50.158;8.658;2023-08-24T14:27:42;30.30;79.20
35111;DHT22;21290;50.158;8.658;2023-08-24T14:30:20;30.10;79.10
35111;DHT22;21290;50.158;8.658;2023-08-24T14:32:46;29.90;80.50
35111;DHT22;21290;50.158;8.658;2023-08-24T14:35:13;29.80;80.10
35111;DHT22;21290;50.158;8.658;2023-08-24T14:37:40;29.60;81.70
35111;DHT22;21290;50.158;8.658;2023-08-24T14:40:07;29.50;80.40
35111;DHT22;21290;50.158;8.658;2023-08-24T14:42:34;29.40;82.20
35111;DHT22;21290;50.158;8.658;2023-08-24T14:45:01;29.20;81.70
35111;DHT22;21290;50.158;8.658;2023-08-24T14:47:28;29.10;81.50
35111;DHT22;21290;50.158;8.658;2023-08-24T14:49:54;29.00;80.60
35111;DHT22;21290;50.158;8.658;2023-08-24T14:52:21;28.80;81.20
35111;DHT22;21290;50.158;8.658;2023-08-24T14:54:47;28.70;80.60
35111;DHT22;21290;50.158;8.658;2023-08-24T14:57:14;28.60;82.10
35111;DHT22;21290;50.158;8.658;2023-08-24T14:59:41;28.50;82.60
35111;DHT22;21290;50.158;8.658;2023-08-24T15:02:07;28.40;83.30
35111;DHT22;21290;50.158;8.658;2023-08-24T15:04:34;28.30;84.30
35111;DHT22;21290;50.158;8.658;2023-08-24T15:07:01;28.20;85.10
35111;DHT22;21290;50.158;8.658;2023-08-24T15:09:27;28.20;85.60
35111;DHT22;21290;50.158;8.658;2023-08-24T15:11:54;28.20;85.50
35111;DHT22;21290;50.158;8.658;2023-08-24T15:14:21;28.10;86.40
35111;DHT22;21290;50.158;8.658;2023-08-24T15:16:47;28.20;87.60
35111;DHT22;21290;50.158;8.658;2023-08-24T15:19:14;28.20;87.90
35111;DHT22;21290;50.158;8.658;2023-08-24T15:21:40;28.20;89.00
35111;DHT22;21290;50.158;8.658;2023-08-24T15:24:07;28.20;89.20
35111;DHT22;21290;50.158;8.658;2023-08-24T15:26:34;28.20;90.40
35111;DHT22;21290;50.158;8.658;2023-08-24T15:29:14;28.20;90.60
35111;DHT22;21290;50.158;8.658;2023-08-24T15:31:42;28.10;90.30
35111;DHT22;21290;50.158;8.658;2023-08-24T15:34:10;28.10;90.60
35111;DHT22;21290;50.158;8.658;2023-08-24T15:36:36;28.10;90.60
35111;DHT22;21290;50.158;8.658;2023-08-24T15:39:03;28.00;90.70
35111;DHT22;21290;50.158;8.658;2023-08-24T15:41:31;28.00;90.60
35111;DHT22;21290;50.158;8.658;2023-08-24T15:43:57;27.90;90.60